Terminal Aerodrome Forecast
Issued by NWS

Home | Current Version | Previous Version | Text Only | Print | Product List | Glossary On
Versions: 1 2 3 4 5 6 7 8 9 10 11 12 13 14 15 16 17 18 19 20 21 22 23 24
000
FTUS41 KRNK 230520
TAFBCB
TAF
KBCB 230520Z 2306/2406 07011G21KT 4SM -RA BR OVC004
      TEMPO 2307/2311 1SM RA BR OVC003
     FM231600 06006KT 4SM -RA BR OVC004
     FM232000 02005KT 5SM -SHRA BR BKN007 OVC012
     FM240200 33004KT 6SM -SHRA SCT009 OVC013=

USA.gov is the U.S. government's official web portal to all federal, state and local government web resources and services.